Time;durP1;ratioP1;P1;durP2;ratioP2;P2;SDS_P1;SDS_P2;PMS_P1;PMS_P2;Temp;Humidity;BMP_temperature;BMP_pressure;BME280_temperature;BME280_humidity;BME280_pressure;Samples;Min_cycle;Max_cycle;Signal;HPM_P1;HPM_P2
2022/06/22 00:02:30;;;;;;;7.90;6.90;;;;;;;11.94;100.00;98591.00;104694;1277;61320;-73
2022/06/22 00:05:15;;;;;;;7.30;6.50;;;;;;;11.92;100.00;98592.08;104642;1277;61400;-74
2022/06/22 00:07:49;;;;;;;9.30;7.10;;;;;;;11.89;100.00;98593.01;104663;1277;75510;-74
2022/06/22 00:10:28;;;;;;;7.80;7.00;;;;;;;11.88;100.00;98594.38;104621;1277;67273;-74
2022/06/22 00:12:57;;;;;;;10.60;7.70;;;;;;;11.87;100.00;98592.84;105051;1271;73377;-74
2022/06/22 00:15:40;;;;;;;10.00;7.10;;;;;;;11.85;100.00;98591.34;105013;1271;61253;-74
2022/06/22 00:18:21;;;;;;;9.60;7.10;;;;;;;11.84;100.00;98592.45;105256;1271;61381;-73
2022/06/22 00:20:51;;;;;;;7.40;6.70;;;;;;;11.83;100.00;98594.90;105198;1271;74675;-73
2022/06/22 00:23:30;;;;;;;8.40;6.90;;;;;;;11.81;100.00;98596.98;105261;1271;69526;-74
2022/06/22 00:26:22;;;;;;;9.90;7.20;;;;;;;11.80;100.00;98603.63;105161;1271;73389;-74
2022/06/22 00:28:54;;;;;;;10.90;8.50;;;;;;;11.78;100.00;98611.11;105207;1271;61276;-74
2022/06/22 00:31:40;;;;;;;9.10;7.20;;;;;;;11.75;100.00;98612.77;105200;1271;61256;-74
2022/06/22 00:34:10;;;;;;;8.30;6.90;;;;;;;11.74;100.00;98619.77;105209;1271;76319;-73
2022/06/22 00:36:39;;;;;;;11.40;7.20;;;;;;;11.74;100.00;98620.86;105203;1271;69357;-73
2022/06/22 00:39:25;;;;;;;11.30;8.00;;;;;;;11.72;100.00;98629.89;105016;1271;74265;-73
2022/06/22 00:41:55;;;;;;;10.30;8.10;;;;;;;11.71;100.00;98628.90;105204;1271;61288;-74
2022/06/22 00:44:22;;;;;;;;;;;;;;;11.70;100.00;98633.59;105193;1270;61304;-74
2022/06/22 00:46:57;;;;;;;8.50;7.50;;;;;;;11.71;100.00;98635.29;105157;1271;75262;-73
2022/06/22 00:49:24;;;;;;;9.40;7.80;;;;;;;11.73;100.00;98641.02;105155;1271;69374;-73
2022/06/22 00:51:51;;;;;;;9.10;7.50;;;;;;;11.75;100.00;98648.72;105135;1271;74646;-73
2022/06/22 00:54:25;;;;;;;9.90;7.60;;;;;;;11.77;100.00;98649.98;104993;1274;61509;-73
2022/06/22 00:56:55;;;;;;;9.70;7.30;;;;;;;11.80;100.00;98651.91;105366;1271;61320;-74
2022/06/22 00:59:38;;;;;;;12.10;8.10;;;;;;;11.81;100.00;98647.69;105121;1271;76095;-74
2022/06/22 01:02:26;;;;;;;7.10;6.30;;;;;;;11.83;100.00;98646.84;104970;1272;69218;-74
2022/06/22 01:05:00;;;;;;;8.50;7.50;;;;;;;11.86;100.00;98647.54;105173;1271;74183;-73
2022/06/22 01:07:45;;;;;;;8.90;7.80;;;;;;;11.90;100.00;98641.72;105030;1271;61511;-73
2022/06/22 01:10:52;;;;;;;10.80;7.60;;;;;;;11.94;100.00;98645.34;104952;1272;61568;-73
2022/06/22 01:13:37;;;;;;;10.00;7.90;;;;;;;11.92;100.00;98646.73;105159;1270;76185;-74
2022/06/22 01:16:09;;;;;;;8.30;7.40;;;;;;;11.90;100.00;98649.52;105211;1271;67370;-73
2022/06/22 01:18:42;;;;;;;9.20;7.60;;;;;;;11.89;100.00;98647.12;105078;1271;71646;-74
2022/06/22 01:21:27;;;;;;;12.20;8.30;;;;;;;11.85;100.00;98644.20;105148;1271;61201;-74
2022/06/22 01:24:00;;;;;;;11.40;7.90;;;;;;;11.83;100.00;98644.33;105195;1271;61278;-74
2022/06/22 01:27:14;;;;;;;11.70;8.50;;;;;;;11.80;100.00;98647.92;105140;1271;75144;-74
2022/06/22 01:29:51;;;;;;;11.50;7.90;;;;;;;11.75;100.00;98650.50;104540;1279;70409;-72
2022/06/22 01:32:28;;;;;;;11.90;8.90;;;;;;;11.71;100.00;98646.02;104648;1277;73117;-73
2022/06/22 01:34:59;;;;;;;10.10;8.50;;;;;;;11.65;100.00;98648.23;104484;1277;61451;-73
2022/06/22 01:37:30;;;;;;;10.60;8.00;;;;;;;11.60;100.00;98645.23;104660;1277;62288;-73
2022/06/22 01:40:14;;;;;;;9.70;8.70;;;;;;;11.57;100.00;98646.91;104652;1277;74871;-74
2022/06/22 01:42:59;;;;;;;12.90;9.00;;;;;;;11.53;100.00;98641.34;104653;1277;69182;-73
2022/06/22 01:45:42;;;;;;;12.80;9.20;;;;;;;11.50;100.00;98638.20;104646;1277;73300;-73
2022/06/22 01:48:20;;;;;;;9.60;8.40;;;;;;;11.46;100.00;98638.48;104646;1277;61567;-73
2022/06/22 01:50:58;;;;;;;11.90;8.60;;;;;;;11.41;100.00;98643.13;104630;1277;61252;-73
2022/06/22 01:53:30;;;;;;;13.00;8.30;;;;;;;11.38;100.00;98644.94;104630;1277;76147;-73
2022/06/22 01:56:00;;;;;;;9.10;8.10;;;;;;;11.35;100.00;98643.73;104396;1277;68820;-73
2022/06/22 01:58:45;;;;;;;12.30;9.40;;;;;;;11.32;100.00;98647.34;104651;1277;74275;-73
2022/06/22 02:01:40;;;;;;;10.70;8.70;;;;;;;11.31;100.00;98647.29;104641;1277;61175;-73
2022/06/22 02:04:40;;;;;;;12.30;9.20;;;;;;;11.29;100.00;98650.44;104296;1277;61462;-73
2022/06/22 02:10:39;;;;;;;11.20;8.40;;;;;;;11.25;100.00;98648.45;105193;1269;69339;-74
2022/06/22 02:13:42;;;;;;;10.30;8.30;;;;;;;11.19;100.00;98654.34;105183;1271;74701;-74
2022/06/22 02:16:14;;;;;;;10.40;8.40;;;;;;;11.15;100.00;98652.22;104625;1277;61678;-72
2022/06/22 02:18:48;;;;;;;9.70;8.60;;;;;;;11.12;100.00;98654.59;104622;1277;61448;-73
2022/06/22 02:21:33;;;;;;;11.80;8.80;;;;;;;11.10;100.00;98655.78;104466;1277;76402;-74
2022/06/22 02:24:07;;;;;;;11.90;9.30;;;;;;;11.06;100.00;98660.88;104602;1277;69953;-74
2022/06/22 02:26:41;;;;;;;16.60;10.30;;;;;;;11.00;100.00;98661.48;104596;1277;73420;-74
2022/06/22 02:29:08;;;;;;;17.00;10.80;;;;;;;10.95;100.00;98665.05;104581;1277;61397;-74
2022/06/22 02:31:35;;;;;;;15.10;10.20;;;;;;;10.88;100.00;98674.50;104454;1277;61372;-77
2022/06/22 02:34:02;;;;;;;18.00;10.60;;;;;;;10.81;100.00;98679.65;104409;1277;75255;-74
2022/06/22 02:36:32;;;;;;;17.80;11.90;;;;;;;10.74;100.00;98675.63;104601;1277;70335;-75
2022/06/22 02:39:02;;;;;;;;;;;;;;;10.74;100.00;98675.64;104621;1277;73604;-74
2022/06/22 02:44:30;;;;;;;12.70;8.70;;;;;;;10.78;100.00;98689.11;104650;1277;61827;-74
2022/06/22 02:47:31;;;;;;;13.20;9.90;;;;;;;10.77;100.00;98693.20;104661;1277;76425;-74
2022/06/22 02:50:27;;;;;;;13.40;9.60;;;;;;;10.78;100.00;98691.23;104423;1277;68446;-74
2022/06/22 02:53:00;;;;;;;15.00;10.40;;;;;;;10.80;100.00;98687.87;104533;1271;73823;-74
2022/06/22 02:55:32;;;;;;;13.40;10.10;;;;;;;10.83;100.00;98690.71;105172;1271;61279;-73
2022/06/22 02:58:00;;;;;;;14.20;10.00;;;;;;;10.84;100.00;98692.90;104900;1271;61252;-74
2022/06/22 03:00:34;;;;;;;13.40;10.40;;;;;;;10.86;100.00;98699.54;105209;1271;74650;-73
2022/06/22 03:03:13;;;;;;;13.00;9.90;;;;;;;10.86;100.00;98707.36;105429;1271;67497;-74
2022/06/22 03:05:43;;;;;;;16.20;11.10;;;;;;;10.85;100.00;98714.48;105249;1271;72236;-74
2022/06/22 03:08:13;;;;;;;16.40;12.40;;;;;;;10.85;100.00;98713.11;104852;1271;469644;-74
2022/06/22 03:10:57;;;;;;;16.40;11.00;;;;;;;10.83;100.00;98705.94;105176;1271;61171;-75
2022/06/22 03:13:29;;;;;;;17.20;11.60;;;;;;;10.86;100.00;98702.89;105197;1271;74350;-74
2022/06/22 03:15:57;;;;;;;16.40;11.80;;;;;;;10.90;100.00;98704.55;104940;1271;69334;-75
2022/06/22 03:18:28;;;;;;;15.30;10.10;;;;;;;10.92;100.00;98701.67;105197;1271;73699;-75
2022/06/22 03:21:08;;;;;;;11.20;9.40;;;;;;;10.93;100.00;98699.31;105161;1271;61359;-73
2022/06/22 03:23:45;;;;;;;11.10;9.40;;;;;;;10.98;100.00;98692.75;105234;1271;61801;-73
2022/06/22 03:26:18;;;;;;;11.10;9.40;;;;;;;11.06;100.00;98686.86;105193;1270;75364;-73
2022/06/22 03:28:51;;;;;;;14.80;9.70;;;;;;;11.16;100.00;98680.98;105186;1271;67485;-73
2022/06/22 03:31:23;;;;;;;9.80;8.80;;;;;;;11.90;100.00;98668.03;105199;1271;74516;-74
2022/06/22 03:33:58;;;;;;;9.00;7.70;;;;;;;13.76;100.00;98657.05;104954;1271;61360;-74
2022/06/22 03:36:33;;;;;;;9.50;7.10;;;;;;;15.32;100.00;98654.46;105115;1270;61320;-74
2022/06/22 03:39:06;;;;;;;6.80;6.10;;;;;;;16.60;100.00;98643.52;105190;1271;75273;-73
2022/06/22 03:41:42;;;;;;;6.80;6.00;;;;;;;17.71;100.00;98638.96;105231;1271;69318;-73
2022/06/22 03:44:14;;;;;;;7.30;5.20;;;;;;;18.74;100.00;98633.90;105158;1271;73259;-73
2022/06/22 03:46:54;;;;;;;6.20;5.60;;;;;;;19.59;100.00;98631.98;105172;1269;61425;-73
2022/06/22 03:49:28;;;;;;;7.00;4.90;;;;;;;20.35;100.00;98631.64;105350;1271;61400;-73
2022/06/22 03:52:03;;;;;;;6.10;5.50;;;;;;;20.96;100.00;98636.45;105090;1271;74803;-74
2022/06/22 03:54:38;;;;;;;7.30;4.80;;;;;;;21.60;100.00;98635.67;105209;1271;70260;-73
2022/06/22 03:57:11;;;;;;;5.90;4.50;;;;;;;22.28;99.91;98637.42;105237;1271;73306;-74
2022/06/22 03:59:42;;;;;;;5.00;4.40;;;;;;;22.77;98.04;98642.16;105183;1271;61310;-74
2022/06/22 04:02:10;;;;;;;6.90;4.80;;;;;;;23.11;95.88;98655.15;105216;1271;61372;-74
2022/06/22 04:04:37;;;;;;;5.30;4.80;;;;;;;23.61;93.91;98653.62;105225;1271;75666;-74
2022/06/22 04:07:05;;;;;;;7.00;4.90;;;;;;;24.06;91.64;98647.74;105212;1271;69207;-73
2022/06/22 04:09:32;;;;;;;8.60;4.60;;;;;;;24.53;89.95;98643.98;105216;1271;73293;-73
2022/06/22 04:12:20;;;;;;;6.40;4.50;;;;;;;24.95;87.86;98649.95;105242;1271;61201;-73
2022/06/22 04:15:02;;;;;;;4.90;4.40;;;;;;;25.38;85.99;98654.59;105149;1271;61269;-75
2022/06/22 04:18:01;;;;;;;7.90;5.40;;;;;;;25.66;84.49;98651.33;105234;1271;76484;-74
2022/06/22 04:20:50;;;;;;;6.20;5.20;;;;;;;25.72;83.07;98653.90;104657;1277;69215;-74
2022/06/22 04:23:31;;;;;;;5.60;5.00;;;;;;;25.83;80.71;98660.30;104585;1277;72435;-73
2022/06/22 04:26:05;;;;;;;7.10;5.20;;;;;;;25.89;79.59;98663.47;104571;1277;61282;-74
2022/06/22 04:28:34;;;;;;;5.80;4.70;;;;;;;26.13;78.48;98668.94;104616;1277;61278;-73
2022/06/22 04:31:02;;;;;;;;;;;;;;;26.20;77.61;98674.94;104674;1277;75417;-73
2022/06/22 04:33:36;;;;;;;5.10;4.60;;;;;;;25.96;76.79;98677.63;104607;1277;69090;-74
2022/06/22 04:36:25;;;;;;;6.70;4.70;;;;;;;26.03;75.25;98679.77;104573;1277;72448;-74
2022/06/22 04:38:54;;;;;;;6.50;5.40;;;;;;;26.28;74.42;98677.27;104609;1277;61374;-74
2022/06/22 04:41:21;;;;;;;;;;;;;;;26.48;73.52;98678.69;104625;1277;61966;-73
2022/06/22 04:43:48;;;;;;;5.10;4.50;;;;;;;26.66;72.93;98681.15;104590;1277;61415;-74
2022/06/22 04:46:27;;;;;;;6.60;4.60;;;;;;;26.82;70.31;98680.56;104570;1277;69249;-73
2022/06/22 04:48:57;;;;;;;5.40;4.90;;;;;;;26.95;67.00;98679.67;104555;1277;74480;-74
2022/06/22 04:51:32;;;;;;;4.40;4.00;;;;;;;27.02;63.88;98683.27;104605;1277;61569;-74
2022/06/22 04:54:12;;;;;;;8.00;4.70;;;;;;;27.11;62.16;98684.79;104580;1277;61376;-74
2022/06/22 04:56:43;;;;;;;5.00;4.50;;;;;;;27.25;61.48;98684.63;104648;1269;76136;-74
2022/06/22 04:59:13;;;;;;;6.10;4.30;;;;;;;27.35;59.59;98686.94;105239;1271;70322;-74
2022/06/22 05:01:56;;;;;;;5.30;4.60;;;;;;;27.37;57.92;98690.93;105311;1270;74311;-72
2022/06/22 05:04:34;;;;;;;6.10;4.70;;;;;;;27.23;55.60;98691.92;105214;1271;61291;-74
2022/06/22 05:07:38;;;;;;;6.60;4.70;;;;;;;27.19;55.11;98692.69;105220;1271;61306;-73
2022/06/22 05:10:27;;;;;;;6.10;5.40;;;;;;;27.25;54.64;98694.95;105100;1271;75676;-74
2022/06/22 05:13:12;;;;;;;6.10;5.20;;;;;;;27.23;53.27;98699.25;105224;1271;69157;-73
2022/06/22 05:15:41;;;;;;;4.70;4.20;;;;;;;27.40;52.84;98707.41;105188;1271;74177;-74
2022/06/22 05:18:34;;;;;;;6.90;4.70;;;;;;;27.36;50.55;98704.54;105296;1271;61327;-74
2022/06/22 05:21:19;;;;;;;7.90;4.50;;;;;;;27.30;50.72;98710.04;105241;1271;61245;-73
2022/06/22 05:23:54;;;;;;;6.90;4.70;;;;;;;27.31;50.37;98710.31;105179;1271;76664;-73
2022/06/22 05:26:24;;;;;;;6.20;4.70;;;;;;;27.40;50.18;98711.77;105189;1271;70142;-74
2022/06/22 05:29:00;;;;;;;5.60;4.10;;;;;;;27.44;50.05;98712.27;105185;1271;73185;-74
2022/06/22 05:31:34;;;;;;;6.40;5.00;;;;;;;27.60;49.90;98716.91;105199;1271;61345;-74
2022/06/22 05:34:04;;;;;;;6.90;5.20;;;;;;;27.69;48.75;98714.90;105217;1271;61354;-74
2022/06/22 05:36:37;;;;;;;5.10;4.30;;;;;;;27.66;48.73;98711.35;105278;1271;75312;-74
2022/06/22 05:39:06;;;;;;;7.80;4.40;;;;;;;27.87;48.46;98706.73;105281;1271;69312;-75
2022/06/22 05:41:37;;;;;;;5.40;4.30;;;;;;;27.93;48.09;98700.96;105169;1271;73137;-73
2022/06/22 05:44:07;;;;;;;5.60;3.90;;;;;;;28.16;47.93;98699.86;105267;1271;61189;-73
2022/06/22 05:46:35;;;;;;;7.00;4.20;;;;;;;28.27;47.42;98698.33;105190;1269;61304;-73
2022/06/22 05:49:01;;;;;;;7.20;4.50;;;;;;;28.19;46.92;98696.30;105162;1271;75145;-73
2022/06/22 05:51:50;;;;;;;7.70;4.60;;;;;;;28.14;46.67;98692.96;105218;1271;61635;-73
2022/06/22 05:54:27;;;;;;;6.00;4.50;;;;;;;28.25;46.88;98686.45;105199;1271;73316;-73
2022/06/22 05:57:11;;;;;;;4.90;4.40;;;;;;;28.63;46.97;98686.00;105226;1271;61323;-73
2022/06/22 05:59:42;;;;;;;4.30;3.90;;;;;;;28.91;45.85;98684.75;105202;1270;61311;-74
2022/06/22 06:02:36;;;;;;;5.40;3.80;;;;;;;28.84;45.04;98690.48;105203;1271;74616;-73
2022/06/22 06:05:18;;;;;;;5.20;4.10;;;;;;;28.68;44.84;98689.45;105204;1271;69284;-74
2022/06/22 06:07:51;;;;;;;6.10;3.90;;;;;;;28.72;44.44;98688.69;105187;1271;73364;-74
2022/06/22 06:10:40;;;;;;;7.70;3.80;;;;;;;28.57;43.98;98686.43;105221;1271;61545;-74
2022/06/22 06:13:19;;;;;;;5.60;4.30;;;;;;;28.65;43.78;98686.27;105264;1270;61176;-74
2022/06/22 06:15:50;;;;;;;9.20;3.90;;;;;;;28.84;42.73;98695.59;105297;1270;75559;-74
2022/06/22 06:18:26;;;;;;;5.20;3.90;;;;;;;28.94;42.58;98694.68;105258;1271;70062;-74
2022/06/22 06:21:11;;;;;;;4.50;3.40;;;;;;;28.83;42.68;98695.98;105211;1271;74475;-74
2022/06/22 06:23:43;;;;;;;5.30;3.40;;;;;;;28.62;42.94;98700.39;105223;1271;61419;-75
2022/06/22 06:29:35;;;;;;;4.80;3.80;;;;;;;28.54;43.56;98696.97;105206;1270;76204;-74
2022/06/22 06:32:26;;;;;;;5.60;3.70;;;;;;;28.55;43.37;98693.54;105230;1271;69187;-75
2022/06/22 06:35:16;;;;;;;5.00;3.60;;;;;;;28.46;43.50;98696.86;105226;1271;73410;-74
2022/06/22 06:38:15;;;;;;;4.10;3.20;;;;;;;28.20;43.48;98702.19;105232;1271;61413;-74
2022/06/22 06:41:09;;;;;;;4.00;3.50;;;;;;;27.79;43.72;98715.83;105266;1271;61318;-74
2022/06/22 06:43:36;;;;;;;3.80;3.30;;;;;;;27.76;43.92;98719.97;105218;1271;75331;-73
2022/06/22 06:46:16;;;;;;;4.70;3.20;;;;;;;27.84;43.83;98712.79;105197;1271;61368;-73
2022/06/22 06:48:49;;;;;;;4.30;3.40;;;;;;;27.78;43.39;98703.23;105247;1271;73326;-74
2022/06/22 06:51:20;;;;;;;3.40;2.80;;;;;;;27.59;43.67;98694.79;105201;1271;61306;-74
2022/06/22 06:53:55;;;;;;;4.80;3.20;;;;;;;27.70;43.97;98694.73;105276;1271;61273;-74
2022/06/22 06:56:46;;;;;;;4.40;2.50;;;;;;;27.84;43.68;98695.71;104970;1271;73331;-74
2022/06/22 06:59:18;;;;;;;2.90;2.60;;;;;;;27.83;42.92;98695.09;105220;1271;70397;-74
2022/06/22 07:01:46;;;;;;;3.10;2.80;;;;;;;27.54;42.03;98696.04;105201;1270;74206;-74
2022/06/22 07:04:27;;;;;;;5.20;2.50;;;;;;;27.20;42.52;98693.88;105179;1271;61377;-74
2022/06/22 07:06:59;;;;;;;4.90;2.50;;;;;;;26.99;42.96;98690.95;105121;1271;61341;-74
2022/06/22 07:09:31;;;;;;;3.10;2.80;;;;;;;26.86;43.28;98688.26;105095;1271;76079;-74
2022/06/22 07:12:07;;;;;;;5.50;3.20;;;;;;;26.95;43.91;98689.48;105048;1271;69576;-73
2022/06/22 07:14:39;;;;;;;6.00;2.80;;;;;;;27.06;43.26;98688.34;105026;1271;74285;-73
2022/06/22 07:17:11;;;;;;;3.20;2.50;;;;;;;27.03;44.00;98696.30;105062;1271;61195;-73
2022/06/22 07:19:44;;;;;;;3.00;2.00;;;;;;;27.05;44.13;98697.32;105212;1270;62084;-73
2022/06/22 07:22:31;;;;;;;2.30;1.90;;;;;;;26.71;42.38;98696.06;105078;1271;75153;-73
2022/06/22 07:25:06;;;;;;;2.70;1.90;;;;;;;26.30;42.40;98692.54;105240;1271;68915;-74
2022/06/22 07:27:39;;;;;;;2.40;1.90;;;;;;;26.08;43.49;98691.24;105081;1271;72729;-73
2022/06/22 07:30:11;;;;;;;2.20;1.80;;;;;;;26.04;43.66;98688.51;105070;1271;61336;-74
2022/06/22 07:32:50;;;;;;;3.40;1.40;;;;;;;25.91;43.28;98687.13;104962;1271;61375;-74
2022/06/22 07:35:25;;;;;;;2.80;1.80;;;;;;;25.64;43.88;98682.14;105099;1271;74928;-74
2022/06/22 07:38:10;;;;;;;2.30;1.90;;;;;;;25.18;44.41;98688.08;105120;1271;69313;-74
2022/06/22 07:40:39;;;;;;;4.10;1.70;;;;;;;24.86;45.19;98690.75;105088;1271;73448;-73
2022/06/22 07:43:09;;;;;;;;;;;;;;;24.73;45.87;98691.36;105125;1271;61326;-74
2022/06/22 07:45:35;;;;;;;;;;;;;;;24.60;45.81;98684.61;105099;1271;61568;-74
2022/06/22 07:48:12;;;;;;;2.80;1.90;;;;;;;24.32;45.50;98682.52;105069;1271;61294;-73
2022/06/22 07:50:48;;;;;;;2.30;1.60;;;;;;;24.11;46.08;98691.65;105092;1271;69251;-74
2022/06/22 07:53:37;;;;;;;2.80;1.90;;;;;;;24.01;46.21;98693.54;105151;1271;73481;-74
2022/06/22 07:56:16;;;;;;;3.50;2.10;;;;;;;23.65;45.59;98691.92;105082;1271;61287;-73
2022/06/22 07:58:48;;;;;;;4.20;1.90;;;;;;;23.54;46.61;98692.92;105066;1271;62064;-74
2022/06/22 08:01:19;;;;;;;4.00;1.70;;;;;;;23.59;47.20;98689.39;105056;1271;75376;-73
2022/06/22 08:04:00;;;;;;;3.30;2.00;;;;;;;23.52;47.32;98696.43;105085;1271;69538;-73
2022/06/22 08:06:34;;;;;;;2.70;1.60;;;;;;;23.41;46.27;98695.27;105072;1271;74405;-73
2022/06/22 08:09:23;;;;;;;1.70;1.50;;;;;;;23.20;46.29;98694.98;105031;1271;61459;-73
2022/06/22 08:12:05;;;;;;;2.90;1.90;;;;;;;23.20;46.67;98699.17;105078;1271;61232;-74
2022/06/22 08:14:38;;;;;;;2.00;1.80;;;;;;;23.25;46.56;98691.73;105125;1271;75101;-73
2022/06/22 08:17:11;;;;;;;2.30;1.90;;;;;;;23.30;46.24;98688.20;105114;1271;69221;-74
2022/06/22 08:19:38;;;;;;;2.60;1.90;;;;;;;23.34;46.87;98685.52;105110;1271;73282;-74
2022/06/22 08:22:06;;;;;;;3.50;2.10;;;;;;;23.38;46.91;98685.36;105107;1270;60309;-74
2022/06/22 08:24:40;;;;;;;5.00;2.10;;;;;;;23.37;46.74;98686.30;105257;1271;61538;-74
2022/06/22 08:27:12;;;;;;;4.00;2.00;;;;;;;23.43;47.16;98683.78;105117;1271;75263;-73
2022/06/22 08:29:40;;;;;;;2.50;2.00;;;;;;;23.53;47.16;98681.09;105136;1271;70369;-74
2022/06/22 08:32:23;;;;;;;2.40;1.60;;;;;;;23.63;47.07;98677.41;105115;1271;73555;-75
2022/06/22 08:35:04;;;;;;;2.90;1.80;;;;;;;23.68;46.38;98674.73;105092;1271;61302;-74
2022/06/22 08:37:38;;;;;;;2.90;1.70;;;;;;;23.72;46.08;98676.36;105156;1271;61199;-74
2022/06/22 08:40:16;;;;;;;2.50;1.80;;;;;;;23.76;46.04;98674.21;105087;1270;76397;-73
2022/06/22 08:42:53;;;;;;;3.50;1.80;;;;;;;23.78;45.48;98681.39;105095;1271;69350;-73
2022/06/22 08:45:52;;;;;;;4.10;1.60;;;;;;;23.73;45.30;98684.41;105137;1271;72761;-74
2022/06/22 08:48:35;;;;;;;5.00;1.40;;;;;;;23.62;42.81;98690.64;104504;1279;61447;-74
2022/06/22 08:51:19;;;;;;;9.40;1.70;;;;;;;23.50;42.43;98688.74;104500;1280;61183;-73
2022/06/22 08:54:13;;;;;;;2.70;1.40;;;;;;;23.52;41.52;98685.80;104536;1278;75667;-74
2022/06/22 08:57:03;;;;;;;2.10;1.60;;;;;;;23.46;42.09;98685.02;104534;1280;69291;-74
2022/06/22 08:59:55;;;;;;;3.00;1.40;;;;;;;23.57;42.04;98683.88;104551;1280;73697;-74
2022/06/22 09:02:46;;;;;;;2.10;1.10;;;;;;;23.65;42.13;98682.66;104420;1279;61354;-75
2022/06/22 09:05:37;;;;;;;3.80;2.30;;;;;;;23.74;41.76;98686.06;104553;1280;62802;-74
2022/06/22 09:08:38;;;;;;;1.60;1.50;;;;;;;23.62;42.56;98683.42;104570;1279;75002;-75
2022/06/22 09:11:13;;;;;;;1.80;1.70;;;;;;;23.65;42.43;98685.05;104513;1279;68780;-74
2022/06/22 09:13:40;;;;;;;1.90;1.30;;;;;;;23.62;42.60;98680.13;104510;1279;73447;-74
2022/06/22 09:16:34;;;;;;;2.90;1.30;;;;;;;23.67;42.15;98681.85;104467;1279;61384;-75
2022/06/22 09:19:45;;;;;;;2.80;1.60;;;;;;;23.66;41.03;98679.86;104630;1280;61355;-74
2022/06/22 09:22:14;;;;;;;3.80;1.30;;;;;;;23.58;41.17;98677.66;103759;1287;75286;-74
2022/06/22 09:24:49;;;;;;;3.00;1.50;;;;;;;23.71;41.25;98673.78;103685;1287;70219;-73
2022/06/22 09:27:16;;;;;;;2.30;1.60;;;;;;;23.82;41.38;98670.51;104494;1279;73296;-72
2022/06/22 09:30:20;;;;;;;3.20;1.30;;;;;;;23.84;40.72;98670.44;104471;1280;61428;-74
2022/06/22 09:33:04;;;;;;;4.90;1.20;;;;;;;23.95;40.68;98668.56;104574;1279;61610;-75
2022/06/22 09:35:56;;;;;;;2.40;1.50;;;;;;;24.05;40.31;98666.55;104508;1280;75263;-74
2022/06/22 09:39:00;;;;;;;3.10;1.70;;;;;;;24.25;40.01;98664.11;104584;1280;69554;-74
2022/06/22 09:42:04;;;;;;;2.80;1.80;;;;;;;24.33;40.57;98661.48;104625;1280;73235;-75
2022/06/22 09:45:05;;;;;;;4.00;1.50;;;;;;;24.14;39.20;98662.14;104439;1280;61401;-74
2022/06/22 09:47:53;;;;;;;2.50;2.00;;;;;;;24.10;40.60;98660.77;104428;1279;61431;-74
2022/06/22 09:50:31;;;;;;;3.70;1.60;;;;;;;24.08;39.24;98654.17;104473;1279;74662;-74
2022/06/22 09:53:43;;;;;;;3.70;1.60;;;;;;;24.06;40.26;98658.69;104402;1279;69713;-74
2022/06/22 09:56:28;;;;;;;3.60;1.80;;;;;;;24.19;39.64;98657.52;103808;1287;73654;-74
2022/06/22 09:59:06;;;;;;;6.70;1.80;;;;;;;24.27;39.34;98652.36;104014;1279;61214;-74
2022/06/22 10:02:03;;;;;;;3.40;1.90;;;;;;;24.41;39.41;98654.38;104535;1278;61266;-74
2022/06/22 10:04:39;;;;;;;5.50;1.90;;;;;;;24.57;39.34;98653.27;104524;1278;75307;-73
2022/06/22 10:07:20;;;;;;;5.60;1.50;;;;;;;24.39;37.55;98653.84;104532;1278;70094;-74
2022/06/22 10:10:31;;;;;;;7.30;2.40;;;;;;;24.36;38.05;98654.38;104553;1280;73137;-74
2022/06/22 10:13:17;;;;;;;3.10;1.60;;;;;;;24.58;38.37;98647.55;104038;1285;61359;-74
2022/06/22 10:16:01;;;;;;;104.30;15.90;;;;;;;24.76;38.47;98643.65;103963;1285;61408;-74
2022/06/22 10:18:34;;;;;;;11.10;4.00;;;;;;;25.02;39.16;98636.75;103970;1285;75154;-73
2022/06/22 10:21:24;;;;;;;5.40;1.90;;;;;;;25.29;40.02;98628.29;103992;1285;69320;-74
2022/06/22 10:23:59;;;;;;;10.40;2.80;;;;;;;25.14;38.75;98631.31;103949;1285;73513;-77
2022/06/22 10:26:56;;;;;;;3.60;1.70;;;;;;;24.70;37.17;98635.95;103939;1285;61361;-74
2022/06/22 10:30:06;;;;;;;4.70;2.00;;;;;;;24.51;37.39;98646.38;103986;1285;61410;-75
2022/06/22 10:32:59;;;;;;;5.10;2.30;;;;;;;24.50;37.43;98643.05;104558;1277;75236;-74
2022/06/22 10:36:05;;;;;;;3.10;1.40;;;;;;;24.60;37.30;98635.44;104520;1277;70525;-74
2022/06/22 10:38:36;;;;;;;4.40;1.90;;;;;;;24.70;37.53;98631.09;104332;1282;73362;-74
2022/06/22 10:47:33;;;;;;;5.40;1.60;;;;;;;24.87;36.90;98641.35;104340;1283;75572;-74
2022/06/22 10:50:29;;;;;;;4.50;2.00;;;;;;;24.77;37.40;98636.27;104494;1277;69598;-74
2022/06/22 10:53:04;;;;;;;3.60;1.60;;;;;;;24.95;36.17;98638.44;104815;1277;73520;-74
2022/06/22 10:55:50;;;;;;;4.30;1.60;;;;;;;25.12;36.50;98634.86;104823;1277;61393;-74
2022/06/22 10:58:38;;;;;;;3.80;1.70;;;;;;;25.39;36.48;98638.02;104873;1277;62166;-76
2022/06/22 11:01:22;;;;;;;4.30;1.70;;;;;;;25.51;36.32;98630.44;104934;1277;75727;-74
2022/06/22 11:04:10;;;;;;;3.70;1.60;;;;;;;25.16;35.31;98635.80;104864;1277;70240;-74
2022/06/22 11:06:54;;;;;;;2.00;1.30;;;;;;;24.71;36.25;98633.77;104864;1277;73649;-74
2022/06/22 11:09:54;;;;;;;4.40;1.40;;;;;;;24.49;36.40;98636.84;104821;1275;61569;-72
2022/06/22 11:12:56;;;;;;;4.30;1.30;;;;;;;24.60;35.76;98623.41;104873;1277;61320;-74
2022/06/22 11:15:42;;;;;;;2.00;1.30;;;;;;;24.67;35.88;98631.02;104923;1274;75230;-74
2022/06/22 11:18:29;;;;;;;1.80;1.30;;;;;;;24.87;36.83;98626.08;105040;1273;69450;-73
2022/06/22 11:21:39;;;;;;;3.80;1.60;;;;;;;25.11;36.46;98626.33;105020;1274;73260;-74
2022/06/22 11:24:43;;;;;;;;;;;;;;;25.27;36.37;98622.04;105029;1274;61195;-74
2022/06/22 11:30:58;;;;;;;2.10;1.20;;;;;;;25.20;35.25;98616.45;104583;1277;76361;-75
2022/06/22 11:33:49;;;;;;;1.50;1.10;;;;;;;25.25;34.86;98619.10;104601;1277;69226;-74
2022/06/22 11:36:50;;;;;;;1.50;0.90;;;;;;;25.29;34.13;98625.73;104583;1277;74485;-74
2022/06/22 11:39:35;;;;;;;3.00;1.00;;;;;;;25.30;33.93;98624.73;104601;1277;61360;-73
2022/06/22 11:42:23;;;;;;;1.70;1.10;;;;;;;25.48;34.99;98622.25;104574;1277;61480;-74
2022/06/22 11:48:03;;;;;;;2.20;1.10;;;;;;;26.01;34.23;98618.73;104651;1277;69214;-75
2022/06/22 11:50:37;;;;;;;2.30;1.20;;;;;;;26.27;34.38;98617.48;104607;1277;73343;-74
2022/06/22 11:53:26;;;;;;;3.20;1.40;;;;;;;26.46;34.18;98623.02;104568;1277;61283;-74
2022/06/22 11:56:00;;;;;;;1.90;1.10;;;;;;;26.58;33.98;98630.45;104604;1277;61507;-74
2022/06/22 11:58:38;;;;;;;3.70;1.30;;;;;;;26.69;33.40;98625.96;104743;1274;74639;-74
2022/06/22 12:01:27;;;;;;;2.70;1.30;;;;;;;26.73;33.76;98622.33;105012;1274;68433;-74
2022/06/22 12:04:31;;;;;;;1.50;1.20;;;;;;;26.60;32.92;98633.28;104974;1274;73186;-75
2022/06/22 12:07:13;;;;;;;3.10;1.10;;;;;;;26.61;33.47;98635.20;104981;1274;61348;-75
2022/06/22 12:09:59;;;;;;;3.60;1.50;;;;;;;26.47;34.18;98633.79;105063;1271;61330;-74
2022/06/22 12:13:00;;;;;;;4.70;1.40;;;;;;;26.19;34.23;98636.77;105023;1271;76407;-75
2022/06/22 12:15:46;;;;;;;3.50;1.50;;;;;;;25.84;34.52;98640.86;105065;1271;69142;-75
2022/06/22 12:18:42;;;;;;;2.80;1.40;;;;;;;25.59;34.42;98640.27;105069;1271;73837;-74
2022/06/22 12:21:17;;;;;;;3.20;1.60;;;;;;;25.71;34.68;98633.36;105098;1271;61291;-75
2022/06/22 12:23:50;;;;;;;2.00;1.20;;;;;;;25.80;34.31;98632.49;105045;1271;61546;-75
2022/06/22 12:26:58;;;;;;;2.00;1.40;;;;;;;25.88;33.87;98625.24;105069;1271;74364;-74
2022/06/22 12:29:58;;;;;;;2.70;1.70;;;;;;;26.07;34.89;98616.20;104986;1271;69288;-73
2022/06/22 12:32:34;;;;;;;4.10;1.40;;;;;;;26.12;34.36;98614.35;104806;1271;73376;-74
2022/06/22 12:35:36;;;;;;;2.90;1.40;;;;;;;26.11;34.22;98608.23;104969;1271;61331;-73
2022/06/22 12:38:15;;;;;;;1.80;1.40;;;;;;;25.86;33.71;98613.48;104486;1280;62117;-74
2022/06/22 12:41:19;;;;;;;1.70;1.30;;;;;;;25.91;33.73;98608.32;104561;1279;75386;-75
2022/06/22 12:43:55;;;;;;;2.70;1.40;;;;;;;26.03;33.72;98603.60;103755;1285;69181;-75
2022/06/22 12:46:43;;;;;;;1.70;1.30;;;;;;;26.23;33.23;98597.48;103508;1285;71851;-74